createdAt,value
2022-10-07T00:00:57.411Z,99849.25
2022-10-07T00:03:27.090Z,100527.53
2022-10-07T00:06:02.115Z,101165.78
2022-10-07T00:08:29.939Z,99816.34
2022-10-07T00:10:57.774Z,99460.97
2022-10-07T00:13:25.788Z,97456.59
2022-10-07T00:15:53.367Z,99455.94
2022-10-07T00:18:22.272Z,97109.13
2022-10-07T00:20:49.856Z,96105.31
2022-10-07T00:23:17.427Z,97105.00
2022-10-07T00:25:45.009Z,97114.84
2022-10-07T00:28:12.642Z,97129.59
2022-10-07T00:30:40.378Z,97804.16
2022-10-07T00:33:07.980Z,98801.50
2022-10-07T00:35:37.573Z,98110.38
2022-10-07T00:38:05.010Z,97106.66
2022-10-07T00:40:32.906Z,96766.63
2022-10-07T00:43:00.372Z,98465.47
2022-10-07T00:45:28.381Z,99135.00
2022-10-07T00:47:55.905Z,99452.56
2022-10-07T00:50:27.560Z,99094.00
2022-10-07T00:52:58.602Z,97723.22
2022-10-07T00:55:31.104Z,95702.22
2022-10-07T00:58:03.820Z,95709.50
2022-10-07T01:00:31.321Z,96063.91
2022-10-07T01:03:00.021Z,96728.19
2022-10-07T01:05:27.622Z,96402.19
2022-10-07T01:07:59.329Z,99439.13
2022-10-07T01:10:34.775Z,102118.00
2022-10-07T01:13:05.917Z,100753.06
2022-10-07T01:15:38.531Z,99720.25
2022-10-07T01:18:18.218Z,98367.34
2022-10-07T01:20:53.115Z,99705.94
2022-10-07T01:23:38.451Z,97689.38
2022-10-07T01:26:39.000Z,99686.56
2022-10-07T01:29:10.234Z,99017.00
2022-10-07T01:31:43.299Z,98345.75
2022-10-07T01:34:13.907Z,98007.66
2022-10-07T01:36:43.934Z,97350.44
2022-10-07T01:39:15.412Z,97664.63
2022-10-07T01:41:44.245Z,96342.75
2022-10-07T01:44:13.640Z,96657.13
2022-10-07T01:46:41.191Z,95644.00
2022-10-07T01:49:09.467Z,94962.53
2022-10-07T01:51:41.123Z,94951.31
2022-10-07T01:54:21.158Z,94278.88
2022-10-07T01:57:07.536Z,94595.91
2022-10-07T01:59:53.586Z,93922.03
2022-10-07T02:02:32.392Z,93244.28
2022-10-07T02:05:09.265Z,92569.78
2022-10-07T02:07:45.330Z,93562.19
2022-10-07T02:10:19.955Z,92558.81
2022-10-07T02:12:55.371Z,92880.69
2022-10-07T02:15:26.370Z,92205.66
2022-10-07T02:17:59.169Z,92540.03
2022-10-07T02:20:29.775Z,92536.91
2022-10-07T02:23:00.875Z,93193.03
2022-10-07T02:25:32.404Z,92184.59
2022-10-07T02:28:05.345Z,91192.47
2022-10-07T02:30:34.387Z,93193.03
2022-10-07T02:33:06.157Z,93185.16
2022-10-07T02:35:39.618Z,92515.00
2022-10-07T02:38:11.279Z,92499.34
2022-10-07T02:40:45.060Z,89827.69
2022-10-07T02:43:21.015Z,88477.22
2022-10-07T02:45:55.820Z,88823.44
2022-10-07T02:48:27.220Z,89151.66
2022-10-07T02:51:00.500Z,89147.91
2022-10-07T02:53:32.103Z,90800.53
2022-10-07T02:56:02.002Z,88137.78
2022-10-07T02:58:30.799Z,89798.09
2022-10-07T03:01:01.281Z,86449.28
2022-10-07T03:03:30.480Z,88800.16
2022-10-07T03:05:58.563Z,89447.31
2022-10-07T03:08:26.836Z,89102.66
2022-10-07T03:10:54.303Z,87416.88
2022-10-07T03:13:22.275Z,87413.22
2022-10-07T03:15:51.559Z,86071.47
2022-10-07T03:18:29.127Z,87067.44
2022-10-07T03:20:57.995Z,85389.84
2022-10-07T03:23:26.006Z,86385.72
2022-10-07T03:25:54.864Z,86043.81
2022-10-07T03:28:24.438Z,85703.44
2022-10-07T03:30:54.043Z,85696.91
2022-10-07T03:33:24.912Z,85355.91
2022-10-07T03:35:52.438Z,85020.66
2022-10-07T03:38:19.868Z,84686.91
2022-10-07T03:40:48.354Z,85676.59
2022-10-07T03:43:15.817Z,85669.34
2022-10-07T03:45:46.730Z,85327.00
2022-10-07T03:48:15.575Z,84318.91
2022-10-07T03:50:48.493Z,84659.69
2022-10-07T03:53:15.927Z,84314.59
2022-10-07T03:55:43.435Z,84648.22
2022-10-07T03:58:11.822Z,84314.59
2022-10-07T04:00:40.170Z,84307.47
2022-10-07T04:03:08.192Z,84976.06
2022-10-07T04:05:37.950Z,84303.19
2022-10-07T04:08:05.899Z,83969.63
2022-10-07T04:10:34.080Z,83640.28
2022-10-07T04:13:01.692Z,83639.59
2022-10-07T04:15:29.442Z,83963.94
2022-10-07T04:17:58.618Z,84635.31
2022-10-07T04:20:26.882Z,83309.53
2022-10-07T04:22:55.853Z,83971.03
2022-10-07T04:25:35.630Z,85303.88
2022-10-07T04:28:05.942Z,85637.47
2022-10-07T04:30:34.963Z,85636.00
2022-10-07T04:33:03.621Z,86298.75
2022-10-07T04:35:31.707Z,87297.91
2022-10-07T04:38:01.364Z,86637.44
2022-10-07T04:40:28.840Z,87622.50
2022-10-07T04:43:13.719Z,87961.94
2022-10-07T04:45:41.195Z,87626.19
2022-10-07T04:48:08.670Z,88292.47
2022-10-07T04:50:38.446Z,88289.50
2022-10-07T04:53:07.835Z,87293.44
2022-10-07T04:55:38.541Z,87290.47
2022-10-07T04:58:06.062Z,89293.00
2022-10-07T05:00:37.555Z,88626.75
2022-10-07T05:03:05.088Z,88620.00
2022-10-07T05:05:32.609Z,85957.91
2022-10-07T05:08:00.038Z,86289.97
2022-10-07T05:10:28.829Z,85955.03
2022-10-07T05:12:56.418Z,85288.03
2022-10-07T05:15:24.266Z,84947.31
2022-10-07T05:17:57.362Z,84950.19
2022-10-07T05:20:26.319Z,85943.38
2022-10-07T05:22:53.926Z,84611.69
2022-10-07T05:25:26.287Z,83289.09
2022-10-07T05:27:55.131Z,82967.50
2022-10-07T05:30:22.930Z,83643.81
2022-10-07T05:32:51.544Z,84313.16
2022-10-07T05:35:19.022Z,83650.91
2022-10-07T05:37:51.001Z,83661.53
2022-10-07T05:40:18.843Z,84337.44
2022-10-07T05:42:46.311Z,84671.16
2022-10-07T05:45:15.268Z,83343.34
2022-10-07T05:47:42.977Z,83342.69
2022-10-07T05:50:10.888Z,82681.50
2022-10-07T05:52:38.469Z,82023.69
2022-10-07T05:55:06.994Z,81695.44
2022-10-07T05:57:34.739Z,82694.09
2022-10-07T06:00:03.196Z,82378.41
2022-10-07T06:02:32.600Z,82048.00
2022-10-07T06:05:00.958Z,82388.16
2022-10-07T06:07:29.595Z,82050.75
2022-10-07T06:10:14.729Z,81386.38
2022-10-07T06:12:59.998Z,81055.22
2022-10-07T06:15:27.549Z,79392.22
2022-10-07T06:17:56.317Z,79724.16
2022-10-07T06:20:23.790Z,79054.22
2022-10-07T06:22:53.802Z,79059.59
2022-10-07T06:25:21.294Z,78399.59
2022-10-07T06:27:53.880Z,76768.47
2022-10-07T06:30:22.208Z,78431.44
2022-10-07T06:32:49.717Z,78107.19
2022-10-07T06:35:18.791Z,78446.03
2022-10-07T06:37:46.441Z,77121.59
2022-10-07T06:40:14.303Z,77147.06
2022-10-07T06:42:41.753Z,77497.19
2022-10-07T06:45:10.531Z,76841.25
2022-10-07T06:47:38.714Z,77203.84
2022-10-07T06:50:07.046Z,76893.28
2022-10-07T06:52:38.875Z,78594.78
2022-10-07T06:55:09.141Z,79292.59
2022-10-07T06:57:51.899Z,79657.16
2022-10-07T07:00:19.408Z,81033.03
2022-10-07T07:02:46.937Z,81729.72
2022-10-07T07:05:15.551Z,81760.09
2022-10-07T07:07:44.666Z,84160.13
2022-10-07T07:10:12.420Z,86233.72
2022-10-07T07:12:40.398Z,91712.97
2022-10-07T07:15:08.885Z,97874.44
2022-10-07T07:17:36.334Z,103020.94
2022-10-07T07:20:04.936Z,111648.00
2022-10-07T07:22:32.402Z,120950.41
2022-10-07T07:25:01.175Z,129942.66
2022-10-07T07:27:28.647Z,132415.03
2022-10-07T07:29:56.102Z,141414.06
2022-10-07T07:32:23.590Z,147917.00
2022-10-07T07:37:24.667Z,153002.25
2022-10-07T07:39:52.207Z,153035.75
2022-10-07T07:42:21.721Z,153099.00
2022-10-07T07:44:49.982Z,153137.69
2022-10-07T07:47:17.499Z,153182.84
2022-10-07T07:49:46.035Z,153211.19
2022-10-07T07:52:13.515Z,153268.00
2022-10-07T07:54:41.925Z,153300.28
2022-10-07T07:57:09.623Z,153319.63
2022-10-07T07:59:38.754Z,153375.13
2022-10-07T08:02:07.261Z,153397.09
2022-10-07T08:04:35.932Z,153433.22
2022-10-07T08:07:03.415Z,153456.44
2022-10-07T08:09:30.881Z,153456.44
2022-10-07T08:11:58.637Z,153497.78
2022-10-07T08:14:26.476Z,153533.91
2022-10-07T08:16:57.637Z,153579.19
2022-10-07T08:19:26.016Z,153601.16
2022-10-07T08:21:53.983Z,153629.53
2022-10-07T08:24:22.761Z,153657.97
2022-10-07T08:26:50.427Z,153650.25
2022-10-07T08:29:18.086Z,153717.41
2022-10-07T08:31:45.558Z,153769.09
2022-10-07T08:34:14.415Z,153708.38
2022-10-07T08:36:46.309Z,153748.44
2022-10-07T08:39:14.352Z,153824.66
2022-10-07T08:42:02.527Z,153895.81
2022-10-07T08:44:32.906Z,153891.94
2022-10-07T08:47:17.723Z,153847.94
2022-10-07T08:49:56.444Z,153919.09
2022-10-07T08:52:33.707Z,153942.34
2022-10-07T08:55:02.102Z,153947.53
2022-10-07T08:57:44.659Z,153960.47
2022-10-07T09:00:17.644Z,153955.25
2022-10-07T09:03:02.646Z,153985.00
2022-10-07T09:05:35.021Z,153957.88
2022-10-07T09:08:10.732Z,153981.13
2022-10-07T09:10:41.675Z,154040.63
2022-10-07T09:13:14.318Z,154094.94
2022-10-07T09:15:47.414Z,154144.13
2022-10-07T09:18:21.077Z,154212.72
2022-10-07T09:20:53.754Z,154118.22
2022-10-07T09:23:24.024Z,154166.16
2022-10-07T09:25:52.684Z,154105.28
2022-10-07T09:28:24.103Z,154153.22
2022-10-07T09:30:51.688Z,154185.53
2022-10-07T09:33:21.729Z,154207.56
2022-10-07T09:35:57.467Z,154192.03
2022-10-07T09:38:38.303Z,154208.88
2022-10-07T09:41:19.366Z,154285.19
2022-10-07T09:44:00.011Z,154291.63
2022-10-07T09:46:41.811Z,154373.19
2022-10-07T09:49:30.657Z,154343.47
2022-10-07T09:52:04.589Z,154351.19
2022-10-07T09:54:34.080Z,154414.66
2022-10-07T09:57:04.530Z,154428.91
2022-10-07T09:59:33.726Z,154405.63
2022-10-07T10:02:04.063Z,154436.72
2022-10-07T10:04:35.377Z,154414.66
2022-10-07T10:07:06.401Z,154480.69
2022-10-07T10:09:35.049Z,154529.94
2022-10-07T10:12:09.872Z,154573.97
2022-10-07T10:14:45.050Z,154580.44
2022-10-07T10:17:31.886Z,154581.72
2022-10-07T10:20:29.097Z,154527.34
2022-10-07T10:22:58.504Z,154592.09
2022-10-07T10:26:05.032Z,154623.19
2022-10-07T10:28:44.858Z,154625.78
2022-10-07T10:31:23.690Z,154668.59
2022-10-07T10:34:00.124Z,154649.13
2022-10-07T10:36:31.858Z,154712.59
2022-10-07T10:39:05.019Z,154721.72
2022-10-07T10:41:40.032Z,154778.69
2022-10-07T10:44:28.356Z,154765.72
2022-10-07T10:47:03.796Z,154768.34
2022-10-07T10:49:38.791Z,154796.84
2022-10-07T10:52:21.818Z,154783.91
2022-10-07T10:55:11.543Z,154809.81
2022-10-07T10:57:51.890Z,154831.81
2022-10-07T11:00:21.929Z,154861.66
2022-10-07T11:03:15.219Z,154789.09
2022-10-07T11:05:44.066Z,154830.56
2022-10-07T11:08:17.262Z,154813.72
2022-10-07T11:10:51.212Z,154830.56
2022-10-07T11:13:27.283Z,154830.56
2022-10-07T11:15:59.685Z,154846.09
2022-10-07T11:18:33.276Z,154891.53
2022-10-07T11:21:02.370Z,154888.91
2022-10-07T11:23:41.265Z,154908.38
2022-10-07T11:26:17.304Z,154942.06
2022-10-07T11:28:45.718Z,154916.16
2022-10-07T11:31:21.016Z,154955.03
2022-10-07T11:33:53.763Z,154944.66
2022-10-07T11:36:30.582Z,154957.63
2022-10-07T11:38:58.383Z,154936.91
2022-10-07T11:41:34.318Z,154911.00
2022-10-07T11:44:09.609Z,154918.75
2022-10-07T11:46:41.948Z,154911.00
2022-10-07T11:49:15.573Z,154944.66
2022-10-07T11:51:53.890Z,154951.19
2022-10-07T11:54:23.922Z,154970.59
2022-10-07T11:56:55.919Z,154987.47
2022-10-07T11:59:33.895Z,155003.03
2022-10-07T12:02:01.931Z,154971.91
2022-10-07T12:04:39.135Z,155006.94
2022-10-07T12:07:56.505Z,155058.81
2022-10-07T12:10:32.735Z,155009.50
2022-10-07T12:13:39.030Z,155027.66
2022-10-07T12:16:52.632Z,155079.53
2022-10-07T12:19:23.844Z,155082.13
2022-10-07T12:22:17.751Z,155006.94
2022-10-07T12:24:47.412Z,155047.13
2022-10-07T12:27:17.273Z,155054.91
2022-10-07T12:29:59.646Z,155052.28
2022-10-07T12:32:56.124Z,155066.56
2022-10-07T12:35:53.099Z,155076.94
2022-10-07T12:38:27.463Z,155092.56
2022-10-07T12:41:04.223Z,155108.13
2022-10-07T12:43:46.845Z,155083.44
2022-10-07T12:46:18.631Z,155083.44
2022-10-07T12:48:49.096Z,155069.16
2022-10-07T12:51:22.164Z,155065.25
2022-10-07T12:53:52.545Z,155079.53
2022-10-07T12:56:23.423Z,155089.91
2022-10-07T12:59:32.273Z,155100.38
2022-10-07T13:02:32.483Z,155019.91
2022-10-07T13:05:32.103Z,155001.72
2022-10-07T13:08:33.255Z,155051.00
2022-10-07T13:11:22.514Z,155019.91
2022-10-07T13:17:32.075Z,155084.75
2022-10-07T13:20:15.525Z,155074.38
2022-10-07T13:22:46.575Z,155031.56
2022-10-07T13:25:15.760Z,154995.22
2022-10-07T13:27:55.716Z,155017.31
2022-10-07T13:30:44.861Z,155019.91
2022-10-07T13:33:20.835Z,154988.75
2022-10-07T13:35:50.654Z,155001.72
2022-10-07T13:38:22.783Z,155006.94
2022-10-07T13:41:03.150Z,155032.88
2022-10-07T13:43:33.000Z,154995.22
2022-10-07T13:46:03.020Z,154991.38
2022-10-07T13:48:35.129Z,154980.97
2022-10-07T13:51:05.019Z,154955.03
2022-10-07T13:53:35.944Z,154923.94
2022-10-07T13:56:09.532Z,154925.25
2022-10-07T13:58:37.994Z,154949.88
2022-10-07T14:01:07.064Z,154911.00
2022-10-07T14:03:34.576Z,154895.44
2022-10-07T14:06:02.038Z,154872.09
2022-10-07T14:08:31.794Z,154887.63
2022-10-07T14:11:04.328Z,154869.50
2022-10-07T14:13:33.093Z,154855.19
2022-10-07T14:16:01.501Z,154874.66
2022-10-07T14:18:31.164Z,154861.66
2022-10-07T14:21:09.558Z,154886.31
2022-10-07T14:23:38.668Z,154874.66
2022-10-07T14:26:09.658Z,154856.50
2022-10-07T14:28:39.531Z,154874.66
2022-10-07T14:31:35.262Z,154846.09
2022-10-07T14:34:32.224Z,154847.38
2022-10-07T14:37:09.049Z,154851.28
2022-10-07T14:39:40.259Z,154807.22
2022-10-07T14:42:15.749Z,154776.13
2022-10-07T14:44:43.905Z,154791.66
2022-10-07T14:47:14.548Z,154815.00
2022-10-07T14:49:43.071Z,154796.84
2022-10-07T14:52:14.706Z,154864.25
2022-10-07T14:54:44.003Z,154890.22
2022-10-07T14:57:11.493Z,154918.75
2022-10-07T14:59:38.986Z,154918.75
2022-10-07T15:02:06.783Z,154934.31
2022-10-07T15:04:34.440Z,154861.66
2022-10-07T15:07:02.358Z,154908.38
2022-10-07T15:09:29.872Z,154848.69
2022-10-07T15:11:58.706Z,154856.50
2022-10-07T15:14:26.176Z,154892.81
2022-10-07T15:16:53.715Z,154853.88
2022-10-07T15:19:21.203Z,154898.03
2022-10-07T15:21:48.671Z,154892.81
2022-10-07T15:24:16.126Z,154840.94
2022-10-07T15:26:43.580Z,154861.66
2022-10-07T15:29:13.291Z,154820.16
2022-10-07T15:31:40.746Z,154879.84
2022-10-07T15:34:13.409Z,154781.28
2022-10-07T15:36:41.196Z,154700.94
2022-10-07T15:39:10.346Z,154641.38
2022-10-07T15:41:39.222Z,154655.66
2022-10-07T15:44:08.740Z,154724.25
2022-10-07T15:46:37.588Z,154726.88
2022-10-07T15:49:05.449Z,154703.56
2022-10-07T15:51:33.221Z,154675.03
2022-10-07T15:54:00.666Z,154750.22
2022-10-07T15:56:28.411Z,154777.44
2022-10-07T15:58:56.817Z,154710.00
2022-10-07T16:01:26.477Z,154682.78
2022-10-07T16:03:55.850Z,154663.38
2022-10-07T16:06:25.174Z,154641.38
2022-10-07T16:08:56.288Z,154693.19
2022-10-07T16:11:24.092Z,154726.88
2022-10-07T16:13:52.292Z,154680.25
2022-10-07T16:16:22.522Z,154548.03
2022-10-07T16:18:52.483Z,154431.50
2022-10-07T16:21:23.660Z,154514.38
2022-10-07T16:23:55.463Z,154466.44
2022-10-07T16:26:26.758Z,154403.03
2022-10-07T16:29:12.875Z,154364.16
2022-10-07T16:31:42.379Z,154408.22
2022-10-07T16:34:11.277Z,154406.91
2022-10-07T16:36:45.336Z,154476.84
2022-10-07T16:39:13.455Z,154483.28
2022-10-07T16:41:41.751Z,154434.09
2022-10-07T16:44:09.478Z,154447.06
2022-10-07T16:46:37.190Z,154493.63
2022-10-07T16:49:06.063Z,154463.91
2022-10-07T16:51:36.130Z,154400.44
2022-10-07T16:54:07.676Z,154447.06
2022-10-07T16:56:36.618Z,154436.72
2022-10-07T16:59:06.996Z,154418.56
2022-10-07T17:01:34.874Z,154453.50
2022-10-07T17:04:03.610Z,154403.03
2022-10-07T17:06:32.287Z,154428.91
2022-10-07T17:09:02.952Z,154374.50
2022-10-07T17:11:33.453Z,154334.34
2022-10-07T17:14:04.356Z,154309.78
2022-10-07T17:16:34.761Z,154296.84
2022-10-07T17:19:02.255Z,154322.72
2022-10-07T17:21:29.761Z,154286.50
2022-10-07T17:23:58.507Z,154343.47
2022-10-07T17:26:27.879Z,154322.72
2022-10-07T17:29:02.193Z,154344.69
2022-10-07T17:31:30.770Z,154312.38
2022-10-07T17:33:59.813Z,154361.53
2022-10-07T17:36:28.078Z,154375.78
2022-10-07T17:38:55.707Z,154325.31
2022-10-07T17:41:25.273Z,154312.38
2022-10-07T17:43:55.740Z,154316.28
2022-10-07T17:46:26.003Z,154357.69
2022-10-07T17:48:55.452Z,154335.66
2022-10-07T17:51:27.348Z,154311.06
2022-10-07T17:53:56.200Z,154320.13
2022-10-07T17:56:23.718Z,154342.16
2022-10-07T17:58:51.590Z,154317.53
2022-10-07T18:01:23.956Z,154260.63
2022-10-07T18:03:54.390Z,154309.78
2022-10-07T18:06:23.675Z,154260.63
2022-10-07T18:08:51.346Z,154203.66
2022-10-07T18:11:18.863Z,154116.91
2022-10-07T18:14:03.923Z,154170.00
2022-10-07T18:16:33.031Z,154164.88
2022-10-07T18:19:04.616Z,154182.94
2022-10-07T18:21:32.797Z,154197.19
2022-10-07T18:24:00.583Z,154120.81
2022-10-07T18:26:28.893Z,154092.34
2022-10-07T18:28:57.475Z,154102.69
2022-10-07T18:31:26.283Z,154133.75
2022-10-07T18:33:53.805Z,154113.06
2022-10-07T18:36:22.775Z,154079.41
2022-10-07T18:38:50.261Z,154111.78
2022-10-07T18:41:19.085Z,154107.88
2022-10-07T18:43:47.117Z,154094.94
2022-10-07T18:46:16.583Z,153987.63
2022-10-07T18:48:45.796Z,154071.69
2022-10-07T18:51:14.018Z,154074.22
2022-10-07T18:53:46.350Z,154039.34
2022-10-07T18:56:15.311Z,154079.41
2022-10-07T18:58:45.154Z,154053.56
2022-10-07T19:01:14.831Z,154001.84
2022-10-07T19:03:43.115Z,154013.47
2022-10-07T19:06:12.832Z,153903.56
2022-10-07T19:08:40.374Z,153879.00
2022-10-07T19:11:11.553Z,153882.91
2022-10-07T19:13:51.853Z,153937.19
2022-10-07T19:16:21.174Z,153858.25
2022-10-07T19:18:51.223Z,153775.56
2022-10-07T19:21:19.975Z,153794.94
2022-10-07T19:23:49.042Z,153717.41
2022-10-07T19:26:21.565Z,153784.59
2022-10-07T19:28:50.681Z,153627.00
2022-10-07T19:31:20.092Z,153611.50
2022-10-07T19:33:49.946Z,153641.22
2022-10-07T19:36:19.587Z,153691.59
2022-10-07T19:38:52.242Z,153652.81
2022-10-07T19:41:23.283Z,153590.78
2022-10-07T19:43:51.347Z,153564.91
2022-10-07T19:46:20.034Z,153542.97
2022-10-07T19:48:47.623Z,153603.72
2022-10-07T19:51:16.880Z,153623.09
2022-10-07T19:53:47.220Z,153654.13
2022-10-07T19:56:17.468Z,153678.66
2022-10-07T19:58:47.987Z,153688.97
2022-10-07T20:01:19.528Z,153723.84
2022-10-07T20:03:47.070Z,153652.81
2022-10-07T20:06:15.200Z,153686.41
2022-10-07T20:08:44.383Z,153694.19
2022-10-07T20:11:12.246Z,153707.09
2022-10-07T20:13:40.726Z,153670.88
2022-10-07T20:16:13.405Z,153704.50
2022-10-07T20:18:41.274Z,153677.38
2022-10-07T20:21:11.840Z,153676.06
2022-10-07T20:23:41.446Z,153660.56
2022-10-07T20:26:11.137Z,153636.03
2022-10-07T20:28:38.798Z,153624.41
2022-10-07T20:31:07.915Z,153686.41
2022-10-07T20:33:39.912Z,153627.00
2022-10-07T20:36:08.493Z,153607.59
2022-10-07T20:38:50.555Z,153559.78
2022-10-07T20:41:35.766Z,153513.28
2022-10-07T20:44:03.251Z,148351.63
2022-10-07T20:46:30.795Z,145164.56
2022-10-07T20:48:59.650Z,145870.88
2022-10-07T20:51:27.918Z,145167.03
2022-10-07T20:53:55.375Z,144738.47
2022-10-07T20:56:22.827Z,138505.72
2022-10-07T20:58:50.851Z,134301.56
2022-10-07T21:01:18.390Z,131138.59
2022-10-07T21:03:46.295Z,124253.50
2022-10-07T21:06:18.047Z,126363.81
2022-10-07T21:08:47.202Z,128436.56
2022-10-07T21:11:16.392Z,132917.44
2022-10-07T21:13:43.858Z,130102.41
2022-10-07T21:16:11.561Z,123503.50
2022-10-07T21:18:39.083Z,120054.03
2022-10-07T21:21:07.772Z,118973.97
2022-10-07T21:23:36.562Z,114485.75
2022-10-07T21:26:06.619Z,112780.59
2022-10-07T21:28:36.533Z,114161.19
2022-10-07T21:31:08.203Z,116257.66
2022-10-07T21:33:37.438Z,120060.06
2022-10-07T21:36:07.960Z,118982.97
2022-10-07T21:38:37.139Z,118327.44
2022-10-07T21:41:13.096Z,120745.94
2022-10-07T21:43:41.243Z,122865.84
2022-10-07T21:46:09.156Z,127363.13
2022-10-07T21:48:36.862Z,132557.25
2022-10-07T21:51:09.320Z,133603.25
2022-10-07T21:53:38.580Z,132878.31
2022-10-07T21:56:07.400Z,133226.19
2022-10-07T21:58:35.782Z,132507.13
2022-10-07T22:01:03.555Z,131822.81
2022-10-07T22:03:31.088Z,130759.09
2022-10-07T22:06:02.171Z,130792.09
2022-10-07T22:08:34.887Z,129712.38
2022-10-07T22:11:05.338Z,124457.09
2022-10-07T22:13:34.386Z,120269.91
2022-10-07T22:16:03.269Z,115778.19
2022-10-07T22:18:33.527Z,113383.00
2022-10-07T22:21:01.918Z,113072.91
2022-10-07T22:23:29.517Z,116158.91
2022-10-07T22:26:02.793Z,117542.09
2022-10-07T22:28:33.200Z,115796.66
2022-10-07T22:31:02.985Z,115423.88
2022-10-07T22:33:30.507Z,112643.13
2022-10-07T22:35:57.938Z,112331.03
2022-10-07T22:38:25.406Z,113361.13
2022-10-07T22:40:53.002Z,110903.94
2022-10-07T22:43:20.467Z,109506.28
2022-10-07T22:45:57.022Z,105388.97
2022-10-07T22:48:24.990Z,102648.31
2022-10-07T22:50:53.229Z,104381.84
2022-10-07T22:53:21.360Z,103311.13
2022-10-07T22:55:48.816Z,100896.66
2022-10-07T22:58:16.263Z,100210.22
2022-10-07T23:00:43.719Z,98506.84
2022-10-07T23:03:12.630Z,99173.78
2022-10-07T23:05:40.189Z,98154.31
2022-10-07T23:08:07.703Z,100885.59
2022-10-07T23:10:35.183Z,99459.44
2022-10-07T23:13:03.435Z,95739.59
2022-10-07T23:15:30.942Z,96784.41
2022-10-07T23:17:58.409Z,98144.41
2022-10-07T23:20:27.599Z,97467.66
2022-10-07T23:22:55.044Z,98492.72
2022-10-07T23:25:24.347Z,100525.91
2022-10-07T23:27:51.814Z,100169.72
2022-10-07T23:30:19.268Z,96779.50
2022-10-07T23:32:47.001Z,97406.13
2022-10-07T23:35:14.871Z,97365.94
2022-10-07T23:37:44.895Z,93923.47
2022-10-07T23:40:12.380Z,92573.34
2022-10-07T23:42:39.802Z,91185.56
2022-10-07T23:45:07.982Z,88789.06
2022-10-07T23:47:35.582Z,86079.84
2022-10-07T23:50:03.054Z,85372.81
2022-10-07T23:52:31.411Z,83328.00
2022-10-07T23:55:00.204Z,81627.63
2022-10-07T23:57:27.678Z,79954.28
2022-10-07T23:59:55.114Z,81620.72
